Time;durP1;ratioP1;P1;durP2;ratioP2;P2;SDS_P1;SDS_P2;PMS_P1;PMS_P2;Temp;Humidity;BMP_temperature;BMP_pressure;BME280_temperature;BME280_humidity;BME280_pressure;Samples;Min_cycle;Max_cycle;Signal;HPM_P1;HPM_P2
2024/04/17 00:02:13;;;;;;;18.98;11.88;;;;;;;2.22;84.85;98789.36;1785410;79;34774;-58
2024/04/17 00:04:40;;;;;;;17.95;12.80;;;;;;;2.16;84.51;98797.17;1785491;79;25376;-58
2024/04/17 00:07:06;;;;;;;19.57;12.47;;;;;;;2.08;84.49;98794.64;1796618;79;27314;-57
2024/04/17 00:09:32;;;;;;;18.92;12.58;;;;;;;2.07;85.09;98800.25;1797619;79;25587;-58
2024/04/17 00:11:58;;;;;;;21.30;12.80;;;;;;;2.02;84.86;98809.11;1797724;79;25588;-58
2024/04/17 00:14:25;;;;;;;20.88;12.93;;;;;;;1.99;86.11;98799.02;1797688;79;25601;-56
2024/04/17 00:16:51;;;;;;;20.50;13.55;;;;;;;1.99;86.58;98800.34;1797742;79;25362;-58
2024/04/17 00:19:18;;;;;;;18.40;13.68;;;;;;;1.99;86.98;98798.50;1797665;79;27240;-58
2024/04/17 00:21:45;;;;;;;20.97;14.38;;;;;;;1.99;86.73;98798.50;1797724;79;25543;-57
2024/04/17 00:24:11;;;;;;;20.10;12.78;;;;;;;1.96;86.63;98795.06;1797717;79;25457;-57
2024/04/17 00:26:37;;;;;;;20.37;12.85;;;;;;;1.96;86.11;98798.25;1797662;79;25395;-56
2024/04/17 00:29:03;;;;;;;19.02;13.32;;;;;;;1.91;86.16;98799.14;1797748;79;25639;-57
2024/04/17 00:31:30;;;;;;;23.50;12.40;;;;;;;1.86;86.66;98799.98;1797694;79;27903;-58
2024/04/17 00:33:56;;;;;;;21.20;13.80;;;;;;;1.85;86.92;98804.27;1797597;79;25611;-57
2024/04/17 00:36:22;;;;;;;21.33;13.70;;;;;;;1.82;87.71;98809.66;1797681;79;25586;-58
2024/04/17 00:38:48;;;;;;;22.05;13.60;;;;;;;1.81;88.40;98805.39;1797608;79;25488;-58
2024/04/17 00:41:14;;;;;;;20.62;13.05;;;;;;;1.82;88.79;98807.51;1797753;79;25448;-58
2024/04/17 00:43:40;;;;;;;20.45;12.82;;;;;;;1.81;89.50;98807.27;1797709;79;27330;-58
2024/04/17 00:46:10;;;;;;;24.20;12.75;;;;;;;1.82;89.46;98800.33;1797612;79;25456;-56
2024/04/17 00:48:37;;;;;;;23.67;13.28;;;;;;;1.85;90.05;98797.61;1797678;79;25509;-57
2024/04/17 00:51:04;;;;;;;20.80;13.05;;;;;;;1.88;89.78;98797.04;1797660;79;25456;-57
2024/04/17 00:53:33;;;;;;;19.30;12.70;;;;;;;1.90;89.55;98792.20;1797724;79;25460;-57
2024/04/17 00:56:00;;;;;;;17.98;12.18;;;;;;;1.91;89.82;98791.14;1797669;79;27320;-58
2024/04/17 00:58:28;;;;;;;22.07;13.48;;;;;;;1.94;89.72;98799.09;1797585;79;25538;-58
2024/04/17 01:00:54;;;;;;;19.65;12.05;;;;;;;1.93;89.54;98793.52;1797679;79;25354;-57
2024/04/17 01:03:21;;;;;;;20.85;13.15;;;;;;;1.91;89.68;98800.98;1797624;79;25617;-58
2024/04/17 01:05:47;;;;;;;18.42;11.63;;;;;;;1.91;89.38;98802.33;1794947;79;25677;-58
2024/04/17 01:08:14;;;;;;;18.17;12.00;;;;;;;1.88;89.72;98799.70;1785371;80;27236;-58
2024/04/17 01:10:41;;;;;;;18.62;11.60;;;;;;;1.87;89.51;98798.11;1785476;80;25736;-58
2024/04/17 01:13:07;;;;;;;17.32;11.88;;;;;;;1.85;89.85;98797.61;1785510;80;25556;-57
2024/04/17 01:15:33;;;;;;;17.45;11.22;;;;;;;1.84;89.61;98792.05;1785513;80;26036;-57
2024/04/17 01:17:59;;;;;;;17.37;11.10;;;;;;;1.84;90.28;98794.70;1785539;79;25431;-59
2024/04/17 01:20:26;;;;;;;17.90;11.50;;;;;;;1.83;90.42;98787.78;1785557;79;27306;-58
2024/04/17 01:22:52;;;;;;;18.85;10.95;;;;;;;1.84;90.63;98788.83;1785457;80;25554;-59
2024/04/17 01:25:18;;;;;;;20.02;11.30;;;;;;;1.85;90.74;98783.73;1785549;80;25575;-59
2024/04/17 01:27:44;;;;;;;21.27;11.20;;;;;;;1.86;90.68;98790.66;1785498;80;35168;-58
2024/04/17 01:30:11;;;;;;;18.42;11.63;;;;;;;1.86;90.62;98783.21;1800699;79;25641;-59
2024/04/17 01:32:38;;;;;;;17.20;10.98;;;;;;;1.84;90.57;98784.05;1785534;80;27419;-59
2024/04/17 01:35:05;;;;;;;16.90;10.70;;;;;;;1.86;91.02;98785.33;1785427;80;26020;-58
2024/04/17 01:37:31;;;;;;;18.35;11.18;;;;;;;1.84;90.91;98767.50;1785519;80;25378;-59
2024/04/17 01:39:57;;;;;;;20.23;11.28;;;;;;;1.87;90.85;98770.11;1785518;80;25423;-59
2024/04/17 01:42:23;;;;;;;17.20;11.10;;;;;;;1.88;91.13;98764.26;1785576;79;25574;-59
2024/04/17 01:44:49;;;;;;;19.80;11.15;;;;;;;1.90;91.21;98767.42;1785527;79;28016;-59
2024/04/17 01:47:15;;;;;;;17.40;11.25;;;;;;;1.89;91.18;98761.30;1785442;80;25365;-57
2024/04/17 01:49:41;;;;;;;18.40;11.43;;;;;;;1.91;91.01;98764.99;1785536;79;25422;-59
2024/04/17 01:52:07;;;;;;;18.30;11.18;;;;;;;1.91;90.88;98766.33;1785507;80;25635;-58
2024/04/17 01:54:33;;;;;;;18.35;10.93;;;;;;;1.89;90.71;98767.16;1785561;80;25566;-58
2024/04/17 01:57:00;;;;;;;17.50;11.75;;;;;;;1.87;90.86;98763.44;1785475;80;27418;-57
2024/04/17 01:59:26;;;;;;;17.52;10.93;;;;;;;1.83;90.71;98752.56;1785361;80;27148;-59
2024/04/17 02:01:52;;;;;;;16.65;10.28;;;;;;;1.83;90.77;98747.23;1785496;80;25440;-58
2024/04/17 02:04:18;;;;;;;17.90;10.53;;;;;;;1.82;90.58;98747.52;1785428;80;25458;-59
2024/04/17 02:06:44;;;;;;;17.82;10.85;;;;;;;1.81;90.30;98743.28;1791576;79;25609;-57
2024/04/17 02:09:10;;;;;;;16.32;10.50;;;;;;;1.79;90.05;98744.13;1797806;79;27334;-57
2024/04/17 02:11:36;;;;;;;14.98;9.90;;;;;;;1.78;90.18;98742.52;1797737;79;25603;-59
2024/04/17 02:14:03;;;;;;;15.98;10.25;;;;;;;1.76;89.69;98744.69;1797773;79;25567;-59
2024/04/17 02:16:29;;;;;;;17.70;10.38;;;;;;;1.73;90.17;98744.71;1797712;79;25405;-59
2024/04/17 02:18:55;;;;;;;14.85;9.83;;;;;;;1.71;89.92;98735.44;1797772;79;25443;-58
2024/04/17 02:21:21;;;;;;;15.60;9.88;;;;;;;1.66;89.81;98733.08;1797783;79;27915;-59
2024/04/17 02:23:48;;;;;;;16.30;10.20;;;;;;;1.64;89.56;98727.80;1797775;79;25597;-57
2024/04/17 02:26:14;;;;;;;16.80;10.70;;;;;;;1.61;89.60;98729.70;1797786;79;25543;-59
2024/04/17 02:28:40;;;;;;;18.85;10.53;;;;;;;1.59;89.76;98727.31;1797715;79;25555;-59
2024/04/17 02:31:07;;;;;;;17.90;11.10;;;;;;;1.56;89.83;98727.09;1797902;79;25464;-58
2024/04/17 02:33:33;;;;;;;16.73;10.10;;;;;;;1.52;90.04;98722.10;1797776;79;27437;-57
2024/04/17 02:36:00;;;;;;;14.85;10.78;;;;;;;1.50;90.01;98721.05;1797655;79;25784;-59
2024/04/17 02:38:26;;;;;;;18.92;10.98;;;;;;;1.46;89.97;98716.84;1797754;79;25397;-58
2024/04/17 02:40:52;;;;;;;16.45;10.35;;;;;;;1.46;90.18;98725.35;1797732;79;25629;-58
2024/04/17 02:43:18;;;;;;;21.15;10.40;;;;;;;1.44;89.97;98726.19;1797809;79;25614;-58
2024/04/17 02:45:45;;;;;;;16.55;10.68;;;;;;;1.40;90.01;98721.19;1797752;79;27349;-56
2024/04/17 02:48:11;;;;;;;16.95;10.63;;;;;;;1.40;90.17;98725.19;1797642;79;25603;-57
2024/04/17 02:50:41;;;;;;;18.25;10.38;;;;;;;1.36;89.94;98722.83;1797778;79;25601;-58
2024/04/17 02:53:09;;;;;;;15.00;9.93;;;;;;;1.32;89.56;98724.48;1797722;79;25556;-55
2024/04/17 02:55:35;;;;;;;15.70;10.08;;;;;;;1.21;89.17;98727.28;1797781;79;25715;-57
2024/04/17 02:58:01;;;;;;;17.87;10.58;;;;;;;1.15;89.26;98727.62;1797737;79;27339;-59
2024/04/17 03:00:28;;;;;;;16.25;9.98;;;;;;;1.10;89.19;98731.13;1797682;79;25623;-58
2024/04/17 03:02:55;;;;;;;17.35;10.65;;;;;;;1.03;88.91;98725.36;1797732;79;25527;-58
2024/04/17 03:05:26;;;;;;;17.30;9.73;;;;;;;0.96;89.00;98725.70;1797699;79;25675;-59
2024/04/17 03:07:52;;;;;;;16.30;10.20;;;;;;;0.93;89.71;98719.05;1791327;79;25518;-58
2024/04/17 03:10:18;;;;;;;18.80;10.32;;;;;;;0.90;89.67;98727.63;1789903;80;27966;-58
2024/04/17 03:12:44;;;;;;;15.28;10.48;;;;;;;0.88;89.95;98731.64;1789799;80;32819;-56
2024/04/17 03:15:12;;;;;;;20.05;11.10;;;;;;;0.87;90.15;98729.52;1789910;80;25599;-59
2024/04/17 03:17:39;;;;;;;18.05;11.25;;;;;;;0.86;90.45;98734.58;1789858;80;25382;-59
2024/04/17 03:20:07;;;;;;;17.73;10.60;;;;;;;0.84;90.38;98732.74;1789857;80;25453;-59
2024/04/17 03:22:34;;;;;;;21.70;11.33;;;;;;;0.82;90.05;98733.57;1789896;80;27491;-59
2024/04/17 03:25:00;;;;;;;19.50;10.60;;;;;;;0.78;89.94;98736.52;1789822;80;25629;-58
2024/04/17 03:27:26;;;;;;;20.15;10.70;;;;;;;0.78;90.12;98739.73;1789859;80;25533;-59
2024/04/17 03:29:52;;;;;;;14.40;10.18;;;;;;;0.76;90.33;98733.36;1789860;80;25412;-57
2024/04/17 03:32:18;;;;;;;17.35;10.18;;;;;;;0.75;90.03;98741.10;1789884;80;25471;-59
2024/04/17 03:34:47;;;;;;;16.55;10.50;;;;;;;0.72;89.52;98748.31;1789875;80;27528;-59
2024/04/17 03:37:13;;;;;;;18.90;10.88;;;;;;;0.68;89.48;98748.59;1789931;80;25562;-55
2024/04/17 03:39:41;;;;;;;17.37;10.75;;;;;;;0.65;89.57;98743.87;1789812;79;25556;-58
2024/04/17 03:42:08;;;;;;;14.90;10.43;;;;;;;0.62;89.57;98751.86;1789836;80;25522;-59
2024/04/17 03:44:34;;;;;;;15.30;11.10;;;;;;;0.59;89.76;98742.31;1789900;79;25531;-58
2024/04/17 03:47:00;;;;;;;19.62;11.35;;;;;;;0.57;90.06;98741.80;1789821;80;29602;-60
2024/04/17 03:49:26;;;;;;;17.67;10.60;;;;;;;0.57;90.33;98740.48;1789769;80;25533;-59
2024/04/17 03:51:53;;;;;;;15.70;10.03;;;;;;;0.56;90.37;98742.32;1789876;79;25464;-60
2024/04/17 03:54:19;;;;;;;15.03;10.63;;;;;;;0.57;90.17;98741.80;1789797;80;25384;-59
2024/04/17 03:56:45;;;;;;;16.65;10.88;;;;;;;0.53;90.16;98746.35;1789850;80;25392;-58
2024/04/17 03:59:11;;;;;;;17.60;11.12;;;;;;;0.55;90.54;98752.73;1789839;80;27371;-60
2024/04/17 04:01:37;;;;;;;17.95;11.20;;;;;;;0.55;90.68;98757.50;1789746;80;25381;-59
2024/04/17 04:04:04;;;;;;;17.77;11.30;;;;;;;0.51;90.71;98752.50;1789860;80;25380;-59
2024/04/17 04:06:31;;;;;;;21.52;11.78;;;;;;;0.50;90.41;98754.11;1789192;79;26028;-59
2024/04/17 04:08:57;;;;;;;15.75;11.00;;;;;;;0.49;90.60;98760.48;1785436;80;25354;-60
2024/04/17 04:11:23;;;;;;;19.57;11.48;;;;;;;0.47;90.87;98759.44;1785410;80;27318;-59
2024/04/17 04:13:50;;;;;;;17.40;11.18;;;;;;;0.46;90.90;98769.84;1785424;80;25680;-59
2024/04/17 04:16:17;;;;;;;15.65;11.05;;;;;;;0.46;91.23;98773.02;1785432;80;25613;-61
2024/04/17 04:18:43;;;;;;;21.27;10.68;;;;;;;0.46;91.53;98771.68;1785378;80;25580;-58
2024/04/17 04:21:09;;;;;;;17.32;11.35;;;;;;;0.48;91.85;98775.66;1785438;80;25662;-60
2024/04/17 04:23:35;;;;;;;17.52;10.98;;;;;;;0.50;92.36;98774.84;1785390;80;27314;-60
2024/04/17 04:26:01;;;;;;;17.55;11.05;;;;;;;0.55;92.64;98776.13;1785299;80;25582;-59
2024/04/17 04:28:28;;;;;;;19.73;11.40;;;;;;;0.59;92.79;98786.22;1785421;80;25563;-60
2024/04/17 04:30:55;;;;;;;19.75;11.45;;;;;;;0.63;93.20;98774.74;1785367;80;25445;-59
2024/04/17 04:33:22;;;;;;;19.45;12.25;;;;;;;0.68;93.35;98775.22;1785460;80;25646;-59
2024/04/17 04:35:48;;;;;;;18.75;10.98;;;;;;;0.72;93.64;98774.38;1785403;80;27369;-59
2024/04/17 04:38:14;;;;;;;22.48;12.47;;;;;;;0.79;93.76;98773.27;1785285;80;25606;-59
2024/04/17 04:40:42;;;;;;;21.10;11.25;;;;;;;0.86;94.05;98781.17;1785413;80;25438;-60
2024/04/17 04:43:08;;;;;;;17.07;11.78;;;;;;;0.92;94.25;98784.05;1785378;80;25360;-60
2024/04/17 04:45:34;;;;;;;21.15;12.45;;;;;;;1.01;94.44;98786.09;1785630;80;25456;-59
2024/04/17 04:48:00;;;;;;;17.48;11.50;;;;;;;1.06;94.89;98787.38;1785568;80;27380;-59
2024/04/17 04:50:26;;;;;;;20.43;11.97;;;;;;;1.15;95.04;98794.98;1785501;80;25373;-59
2024/04/17 04:52:52;;;;;;;22.90;13.55;;;;;;;1.23;95.28;98791.70;1785588;80;25433;-59
2024/04/17 04:55:18;;;;;;;19.90;12.43;;;;;;;1.31;95.53;98791.61;1785491;80;27483;-59
2024/04/17 04:57:46;;;;;;;20.48;12.47;;;;;;;1.38;95.68;98792.59;1785618;80;25350;-60
2024/04/17 05:00:14;;;;;;;21.23;12.68;;;;;;;1.47;95.99;98797.02;1785500;80;27328;-59
2024/04/17 05:02:40;;;;;;;21.23;12.53;;;;;;;1.56;95.96;98790.52;1785445;80;25568;-58
2024/04/17 05:05:06;;;;;;;19.70;14.10;;;;;;;1.65;95.96;98793.33;1785547;80;25124;-59
2024/04/17 05:07:35;;;;;;;19.57;13.15;;;;;;;1.75;96.12;98797.75;1790702;79;26176;-59
2024/04/17 05:10:02;;;;;;;18.70;13.05;;;;;;;1.85;96.20;98801.06;1797847;79;25556;-58
2024/04/17 05:12:29;;;;;;;20.40;13.03;;;;;;;1.95;96.36;98809.47;1797885;79;27881;-59
2024/04/17 05:14:55;;;;;;;18.10;12.35;;;;;;;2.03;96.51;98814.71;1797736;79;25585;-60
2024/04/17 05:17:21;;;;;;;24.27;13.60;;;;;;;2.13;96.51;98817.23;1797799;79;25533;-58
2024/04/17 05:19:48;;;;;;;21.77;14.28;;;;;;;2.23;96.49;98824.28;1797764;79;26207;-59
2024/04/17 05:22:15;;;;;;;24.27;14.28;;;;;;;2.33;96.44;98831.34;1797879;79;25620;-59
2024/04/17 05:24:41;;;;;;;22.85;14.47;;;;;;;2.41;96.23;98833.36;1797816;79;27241;-60
2024/04/17 05:27:07;;;;;;;22.02;13.95;;;;;;;2.49;96.40;98825.25;1797757;79;25444;-59
2024/04/17 05:29:33;;;;;;;18.77;13.35;;;;;;;2.59;96.42;98829.88;1797771;79;25625;-59
2024/04/17 05:31:59;;;;;;;24.30;13.98;;;;;;;2.69;96.42;98835.61;1797779;79;26210;-59
2024/04/17 05:34:26;;;;;;;22.73;15.25;;;;;;;2.78;96.45;98830.38;1797871;79;25621;-60
2024/04/17 05:36:52;;;;;;;23.83;14.80;;;;;;;2.89;96.23;98836.34;1797754;79;27334;-59
2024/04/17 05:39:18;;;;;;;22.77;14.63;;;;;;;2.98;96.25;98836.71;1770798;79;25883;-60
2024/04/17 05:41:44;;;;;;;24.52;14.23;;;;;;;3.10;96.20;98832.75;1797894;79;29693;-60
2024/04/17 05:44:11;;;;;;;26.10;15.03;;;;;;;3.21;96.11;98838.73;1797785;79;25625;-60
2024/04/17 05:46:38;;;;;;;24.25;14.28;;;;;;;3.32;96.03;98839.58;1797797;79;25367;-59
2024/04/17 05:49:05;;;;;;;21.70;14.07;;;;;;;3.46;96.20;98836.13;1797851;79;29550;-60
2024/04/17 05:51:32;;;;;;;26.17;14.98;;;;;;;3.62;96.29;98833.93;1797727;79;25681;-58
2024/04/17 05:53:58;;;;;;;25.17;14.90;;;;;;;3.79;96.24;98841.34;1797790;79;25399;-59
2024/04/17 05:56:24;;;;;;;22.60;14.65;;;;;;;3.97;96.75;98844.97;1797707;79;25687;-59
2024/04/17 05:58:51;;;;;;;23.15;15.10;;;;;;;4.10;95.89;98838.28;1797815;79;25630;-58
2024/04/17 06:01:17;;;;;;;23.70;15.28;;;;;;;4.29;95.89;98832.77;1797755;79;27345;-59
2024/04/17 06:03:44;;;;;;;27.98;15.63;;;;;;;4.53;96.54;98838.91;1797661;79;25585;-59
2024/04/17 06:06:10;;;;;;;24.98;15.35;;;;;;;4.71;96.48;98830.47;1797785;79;25533;-58
2024/04/17 06:08:37;;;;;;;24.75;15.95;;;;;;;4.91;95.69;98842.02;1791974;79;26241;-58
2024/04/17 06:11:05;;;;;;;24.90;16.17;;;;;;;5.16;96.94;98841.92;1789936;80;25506;-56
2024/04/17 06:13:32;;;;;;;27.35;16.05;;;;;;;5.42;96.56;98839.89;1789948;79;27308;-59
2024/04/17 06:15:58;;;;;;;26.40;15.90;;;;;;;5.66;95.56;98846.77;1789836;80;25810;-59
2024/04/17 06:18:25;;;;;;;23.35;15.05;;;;;;;5.87;94.25;98851.77;1789937;80;25613;-59
2024/04/17 06:20:51;;;;;;;20.88;14.30;;;;;;;6.11;93.87;98847.90;1789847;80;25512;-59
2024/04/17 06:23:17;;;;;;;24.15;16.42;;;;;;;6.31;93.58;98843.81;1789963;80;25625;-59
2024/04/17 06:25:49;;;;;;;24.65;16.73;;;;;;;6.61;94.73;98855.50;1789873;80;27405;-58
2024/04/17 06:28:12;;;;;;;31.27;16.97;;;;;;;6.96;95.36;98857.35;1789563;80;25558;-59
2024/04/17 06:30:39;;;;;;;21.80;15.40;;;;;;;7.26;94.36;98856.31;1789932;80;25550;-58
2024/04/17 06:33:06;;;;;;;24.75;15.13;;;;;;;7.47;92.13;98864.48;1789858;80;25623;-58
2024/04/17 06:35:33;;;;;;;26.75;15.90;;;;;;;7.77;91.91;98860.45;1789948;80;25381;-59
2024/04/17 06:37:59;;;;;;;20.60;14.25;;;;;;;8.14;91.88;98860.72;1789920;79;27693;-58
2024/04/17 06:40:25;;;;;;;28.20;15.50;;;;;;;8.44;90.80;98862.02;1789788;80;25452;-58
2024/04/17 06:42:52;;;;;;;20.60;13.85;;;;;;;8.74;91.65;98857.33;1789908;80;25590;-58
2024/04/17 06:45:18;;;;;;;20.27;13.72;;;;;;;9.01;90.25;98857.07;1789957;80;25622;-58
2024/04/17 06:47:44;;;;;;;22.98;13.98;;;;;;;9.24;90.83;98861.52;1790012;80;25381;-58
2024/04/17 06:50:11;;;;;;;22.82;15.75;;;;;;;9.43;88.71;98860.44;1789881;80;28541;-58
2024/04/17 06:52:37;;;;;;;16.45;13.40;;;;;;;9.56;86.31;98867.19;1789779;80;25664;-57
2024/04/17 06:55:05;;;;;;;19.35;13.70;;;;;;;9.59;84.46;98868.65;1789911;80;25652;-58
2024/04/17 06:57:31;;;;;;;19.05;12.63;;;;;;;9.65;84.33;98870.02;1789872;80;25725;-58
2024/04/17 06:59:57;;;;;;;21.75;13.03;;;;;;;9.72;83.78;98870.23;1789897;80;25396;-58
2024/04/17 07:02:23;;;;;;;17.70;11.90;;;;;;;9.87;83.99;98885.52;1789898;80;27955;-58
2024/04/17 07:04:50;;;;;;;19.05;15.32;;;;;;;10.09;82.42;98878.86;1789772;80;25512;-58
2024/04/17 07:07:16;;;;;;;23.32;16.70;;;;;;;10.39;82.80;98877.27;1790139;79;25398;-58
2024/04/17 07:09:43;;;;;;;21.57;15.35;;;;;;;10.52;80.98;98884.22;1797809;79;26143;-58
2024/04/17 07:12:10;;;;;;;24.05;16.15;;;;;;;10.51;78.71;98884.56;1797776;79;25476;-58
2024/04/17 07:14:37;;;;;;;25.37;15.50;;;;;;;10.50;78.83;98888.38;1797664;79;27370;-57
2024/04/17 07:17:05;;;;;;;18.75;14.55;;;;;;;10.48;77.37;98892.00;1797648;79;26013;-56
2024/04/17 07:19:31;;;;;;;19.82;15.15;;;;;;;10.41;77.01;98885.25;1797749;79;25429;-57
2024/04/17 07:21:57;;;;;;;19.95;13.68;;;;;;;10.43;76.48;98888.96;1797681;79;25699;-58
2024/04/17 07:24:26;;;;;;;17.37;14.00;;;;;;;10.34;75.63;98881.56;1797765;79;25429;-58
2024/04/17 07:26:54;;;;;;;17.75;13.88;;;;;;;10.26;75.22;98884.00;1797846;79;27487;-57
2024/04/17 07:29:21;;;;;;;19.95;13.48;;;;;;;10.19;75.01;98877.05;1797771;79;25905;-58
2024/04/17 07:31:49;;;;;;;19.67;12.65;;;;;;;10.08;74.13;98892.16;1797704;79;25577;-59
2024/04/17 07:34:15;;;;;;;15.88;12.55;;;;;;;9.98;73.65;98886.65;1770739;79;25664;-59
2024/04/17 07:36:41;;;;;;;16.30;11.70;;;;;;;9.91;74.13;98886.44;1797734;79;25539;-59
2024/04/17 07:39:10;;;;;;;18.10;13.05;;;;;;;9.88;74.48;98889.80;1797747;79;27399;-59
2024/04/17 07:41:37;;;;;;;18.10;13.00;;;;;;;9.91;74.71;98892.62;1797752;79;25739;-59
2024/04/17 07:44:04;;;;;;;17.15;12.95;;;;;;;9.98;74.79;98904.78;1797708;79;25429;-60
2024/04/17 07:46:30;;;;;;;14.98;10.95;;;;;;;10.02;75.21;98899.69;1797682;79;26190;-59
2024/04/17 07:48:56;;;;;;;14.65;10.53;;;;;;;10.06;74.29;98903.30;1797745;79;25436;-59
2024/04/17 07:51:24;;;;;;;14.87;10.45;;;;;;;9.99;72.05;98903.06;1797716;79;27427;-59
2024/04/17 07:53:50;;;;;;;18.15;9.75;;;;;;;9.95;73.38;98906.23;1797549;79;27096;-59
2024/04/17 07:56:16;;;;;;;14.10;9.88;;;;;;;9.94;71.75;98905.99;1797664;79;25632;-59
2024/04/17 07:58:43;;;;;;;17.07;11.25;;;;;;;9.83;71.73;98905.66;1797677;79;25700;-59
2024/04/17 08:01:10;;;;;;;15.40;10.65;;;;;;;9.86;72.47;98904.22;1797777;79;25455;-59
2024/04/17 08:03:37;;;;;;;14.85;9.98;;;;;;;9.90;72.28;98905.10;1797718;79;27332;-57
2024/04/17 08:06:05;;;;;;;14.10;9.95;;;;;;;9.92;71.81;98901.50;1797649;79;25651;-58
2024/04/17 08:08:31;;;;;;;13.68;10.48;;;;;;;9.91;71.69;98904.77;1794495;79;25380;-58
2024/04/17 08:10:57;;;;;;;14.45;10.10;;;;;;;10.03;73.14;98903.20;1789824;80;26270;-59
2024/04/17 08:13:24;;;;;;;14.47;10.20;;;;;;;10.33;74.31;98903.73;1789917;80;25535;-58
2024/04/17 08:15:54;;;;;;;12.82;9.15;;;;;;;10.68;72.24;98910.54;1789881;80;27332;-58
2024/04/17 08:18:21;;;;;;;18.35;11.38;;;;;;;10.84;71.35;98908.66;1788851;80;26280;-59
2024/04/17 08:20:47;;;;;;;12.90;11.40;;;;;;;10.96;70.03;98909.17;1788898;79;25794;-59
2024/04/17 08:23:13;;;;;;;17.40;12.60;;;;;;;11.03;69.57;98908.81;1789610;80;27823;-59
2024/04/17 08:25:40;;;;;;;14.35;11.00;;;;;;;11.21;70.06;98911.98;1789877;80;25398;-59
2024/04/17 08:28:06;;;;;;;13.53;11.30;;;;;;;11.58;69.33;98910.99;1789841;79;27934;-59
2024/04/17 08:30:32;;;;;;;14.25;11.40;;;;;;;11.58;65.98;98920.47;1789761;80;25617;-58
2024/04/17 08:32:58;;;;;;;13.10;10.80;;;;;;;11.49;65.86;98919.29;1789868;79;25527;-59
2024/04/17 08:35:25;;;;;;;14.18;10.38;;;;;;;11.39;65.41;98919.23;1789826;80;25673;-58
2024/04/17 08:37:51;;;;;;;11.75;10.55;;;;;;;11.35;65.69;98914.84;1789889;80;25436;-59
2024/04/17 08:40:17;;;;;;;15.23;10.00;;;;;;;11.27;62.60;98917.95;1789837;80;27923;-59
2024/04/17 08:42:48;;;;;;;15.08;9.60;;;;;;;10.96;63.35;98919.42;1789806;79;25601;-59
2024/04/17 08:45:16;;;;;;;14.50;10.82;;;;;;;10.74;63.04;98922.67;1789908;80;25559;-59
2024/04/17 08:47:42;;;;;;;14.73;10.75;;;;;;;10.49;62.85;98920.05;1789787;79;25606;-58
2024/04/17 08:50:10;;;;;;;12.95;10.10;;;;;;;10.37;64.65;98922.75;1765238;80;25400;-59
2024/04/17 08:52:38;;;;;;;13.78;9.88;;;;;;;10.52;64.75;98922.62;1789862;80;27393;-59
2024/04/17 08:55:06;;;;;;;14.43;9.80;;;;;;;10.64;65.51;98927.98;1789751;79;25547;-59
2024/04/17 08:57:32;;;;;;;10.48;8.23;;;;;;;11.10;65.05;98916.34;1789850;80;25560;-59
2024/04/17 08:59:59;;;;;;;11.25;9.00;;;;;;;11.71;66.28;98926.02;1789868;80;25617;-59
2024/04/17 09:02:27;;;;;;;9.03;7.78;;;;;;;11.92;62.62;98919.58;1789933;80;25524;-59
2024/04/17 09:04:54;;;;;;;11.43;8.65;;;;;;;11.96;62.57;98919.86;1789871;79;27757;-59
2024/04/17 09:07:21;;;;;;;9.78;8.38;;;;;;;12.10;62.82;98922.69;1789743;80;25648;-59
2024/04/17 09:09:48;;;;;;;20.12;15.43;;;;;;;12.03;60.59;98923.88;1796172;79;25385;-58
2024/04/17 09:12:15;;;;;;;15.93;12.95;;;;;;;11.90;61.03;98925.31;1797656;79;25643;-60
2024/04/17 09:14:41;;;;;;;9.75;8.65;;;;;;;11.80;60.80;98935.88;1797762;79;25635;-66
2024/04/17 09:17:08;;;;;;;9.68;7.55;;;;;;;11.52;59.80;98939.45;1797721;79;27217;-65
2024/04/17 09:19:34;;;;;;;11.00;7.37;;;;;;;11.24;59.97;98936.23;1797614;79;25668;-65
2024/04/17 09:22:00;;;;;;;10.43;7.62;;;;;;;11.05;60.79;98936.89;1797793;79;25617;-65
2024/04/17 09:24:27;;;;;;;8.63;6.62;;;;;;;10.92;60.65;98934.78;1797690;79;26213;-65
2024/04/17 09:26:54;;;;;;;10.20;7.28;;;;;;;10.68;59.83;98936.23;1797687;79;25436;-64
2024/04/17 09:29:20;;;;;;;8.28;6.92;;;;;;;10.55;61.02;98941.64;1797667;79;26866;-64
2024/04/17 09:31:46;;;;;;;7.92;6.58;;;;;;;10.57;61.25;98935.36;1797673;79;25402;-71
2024/04/17 09:34:18;;;;;;;11.15;7.25;;;;;;;10.70;63.04;98938.02;1797804;79;25565;-67
2024/04/17 09:36:47;;;;;;;8.83;6.90;;;;;;;10.91;63.06;98937.25;1797820;79;25641;-67
2024/04/17 09:39:15;;;;;;;7.70;6.80;;;;;;;11.01;62.76;98947.59;1797568;79;25554;-67
2024/04/17 09:41:43;;;;;;;8.73;6.47;;;;;;;11.00;62.81;98943.32;1797798;79;27290;-68
2024/04/17 09:44:13;;;;;;;8.05;6.72;;;;;;;11.02;62.60;98942.98;1797729;79;25626;-60
2024/04/17 09:46:44;;;;;;;7.50;6.70;;;;;;;11.04;61.92;98946.12;1797838;79;25183;-59
2024/04/17 09:49:24;;;;;;;8.75;6.67;;;;;;;11.00;62.33;98952.02;1797742;79;25788;-60
2024/04/17 09:51:55;;;;;;;8.63;7.15;;;;;;;11.04;62.07;98950.19;1797842;79;25550;-59
2024/04/17 09:54:22;;;;;;;6.97;5.80;;;;;;;11.20;62.36;98951.57;1797682;79;27287;-60
2024/04/17 09:56:50;;;;;;;8.10;5.97;;;;;;;11.39;61.97;98955.77;1797709;79;25589;-58
2024/04/17 09:59:20;;;;;;;9.30;5.83;;;;;;;11.53;59.60;98952.64;1797776;79;25460;-60
2024/04/17 10:01:48;;;;;;;9.15;5.62;;;;;;;11.59;60.11;98953.16;1797731;79;25731;-60
2024/04/17 10:04:14;;;;;;;6.70;5.90;;;;;;;11.64;59.23;98937.23;1797780;79;25380;-60
2024/04/17 10:06:43;;;;;;;10.28;6.80;;;;;;;11.76;59.95;98945.27;1797784;79;27322;-60
2024/04/17 10:09:13;;;;;;;8.83;6.72;;;;;;;11.96;60.60;98952.38;1794511;79;25443;-59
2024/04/17 10:11:40;;;;;;;9.43;6.45;;;;;;;12.36;61.14;98947.88;1789746;80;25541;-57
2024/04/17 10:14:13;;;;;;;7.95;7.15;;;;;;;12.43;58.94;98946.68;1789887;80;25610;-58
2024/04/17 10:16:40;;;;;;;10.60;8.10;;;;;;;12.37;59.20;98956.22;1790008;80;25544;-60
2024/04/17 10:19:07;;;;;;;39.85;35.70;;;;;;;12.29;58.70;98956.64;1789079;80;28108;-62
2024/04/17 10:21:36;;;;;;;8.75;6.83;;;;;;;12.14;57.45;98963.65;1788753;79;25746;-59
2024/04/17 10:24:09;;;;;;;9.15;7.17;;;;;;;11.98;58.35;98960.73;1789963;79;25435;-59
2024/04/17 10:26:44;;;;;;;7.10;6.37;;;;;;;11.87;57.74;98968.58;1789974;80;26208;-59
2024/04/17 10:29:29;;;;;;;8.80;6.85;;;;;;;11.71;58.04;98975.33;1789999;80;25566;-58
2024/04/17 10:32:06;;;;;;;7.00;6.30;;;;;;;11.67;58.28;98975.23;1788872;80;27345;-58
2024/04/17 10:34:48;;;;;;;7.30;6.47;;;;;;;11.52;57.88;98977.36;1789078;80;25336;-59
2024/04/17 10:37:18;;;;;;;7.87;6.37;;;;;;;11.33;58.09;98976.67;1790075;79;25368;-59
2024/04/17 10:39:46;;;;;;;8.13;6.97;;;;;;;11.21;58.23;98974.23;1790000;79;25789;-59
2024/04/17 10:42:20;;;;;;;12.85;8.20;;;;;;;11.06;58.52;98976.90;1790264;80;25384;-59
2024/04/17 10:44:54;;;;;;;8.40;6.72;;;;;;;10.93;59.56;98977.49;1789920;80;28186;-59
2024/04/17 10:47:29;;;;;;;8.95;7.42;;;;;;;10.91;60.10;98977.05;1789741;80;25623;-58
2024/04/17 10:50:01;;;;;;;11.18;7.47;;;;;;;10.90;60.64;98982.26;1789960;80;25524;-59
2024/04/17 10:52:31;;;;;;;9.23;7.03;;;;;;;10.91;60.57;98985.95;1789875;80;25598;-58
2024/04/17 10:55:01;;;;;;;9.08;6.83;;;;;;;10.88;60.69;98973.13;1790083;80;25448;-59
2024/04/17 10:57:31;;;;;;;;;;;;;;;10.95;61.10;98980.09;1792585;79;27181;-59
2024/04/17 10:59:57;;;;;;;8.30;6.83;;;;;;;10.98;60.64;98979.95;1789806;80;25770;-57
2024/04/17 11:02:24;;;;;;;10.68;7.80;;;;;;;10.97;60.66;98982.45;1789927;80;25369;-57
2024/04/17 11:04:50;;;;;;;20.32;16.80;;;;;;;11.01;60.97;98986.81;1789963;79;25750;-58
2024/04/17 11:07:19;;;;;;;9.78;7.95;;;;;;;11.09;61.33;98988.39;1789972;79;25441;-58
2024/04/17 11:09:49;;;;;;;8.63;6.70;;;;;;;11.21;61.30;98983.70;1792770;79;27929;-59
2024/04/17 11:12:19;;;;;;;10.60;7.05;;;;;;;11.30;60.67;98984.12;1795680;79;25468;-59
2024/04/17 11:14:47;;;;;;;6.50;5.87;;;;;;;11.34;61.11;98993.92;1795825;79;25540;-57
2024/04/17 11:17:14;;;;;;;7.43;6.43;;;;;;;11.23;59.25;98996.89;1795985;79;26322;-58
2024/04/17 11:19:42;;;;;;;11.25;6.92;;;;;;;11.01;59.79;98994.16;1795804;79;25428;-58
2024/04/17 11:22:11;;;;;;;7.83;6.03;;;;;;;11.01;61.05;99000.34;1795719;79;27387;-58
2024/04/17 11:24:37;;;;;;;7.33;6.28;;;;;;;11.05;61.20;98993.70;1795808;79;33078;-57
2024/04/17 11:27:08;;;;;;;35.15;12.47;;;;;;;11.09;62.05;99000.00;1795773;79;25441;-58